Time,TemperatureF,DewpointF,PressureIn,WindDirection,WindDirectionDegrees,WindSpeedMPH,WindSpeedGustMPH,Humidity,HourlyPrecipIn,Conditions,Clouds,dailyrainin,SolarRadiationWatts/m^2,SoftwareType,DateUTC
2013-02-25 00:01:00,21.0,7.0,-100.00,WSW,240,0.0,1.0,55,-99.99,,,0.00,0.000000,,2013-02-25 08:01:00,
2013-02-25 00:11:00,21.0,7.0,-100.00,WSW,240,0.0,1.0,55,-99.99,,,0.00,0.000000,,2013-02-25 08:11:00,
2013-02-25 00:41:00,18.0,7.0,-100.00,SW,234,0.0,1.0,62,-99.99,,,0.00,0.000000,,2013-02-25 08:41:00,
2013-02-25 00:52:00,18.0,7.0,-100.00,SW,234,0.0,1.0,62,-99.99,,,0.00,0.000000,,2013-02-25 08:52:00,
2013-02-25 01:01:00,18.0,7.0,-100.00,SW,234,0.0,1.0,62,-99.99,,,0.00,0.000000,,2013-02-25 09:01:00,
2013-02-25 01:12:00,18.0,7.0,-100.00,SW,234,0.0,1.0,62,-99.99,,,0.00,0.000000,,2013-02-25 09:12:00,
2013-02-25 01:41:00,19.0,6.0,-100.00,WSW,255,1.0,2.0,55,-99.99,,,0.00,0.000000,,2013-02-25 09:41:00,
2013-02-25 01:52:00,19.0,6.0,-100.00,WSW,255,1.0,2.0,55,-99.99,,,0.00,0.000000,,2013-02-25 09:52:00,
2013-02-25 02:01:00,19.0,6.0,-100.00,WSW,255,1.0,2.0,55,-99.99,,,0.00,0.000000,,2013-02-25 10:01:00,
2013-02-25 02:11:00,19.0,6.0,-100.00,WSW,255,1.0,2.0,55,-99.99,,,0.00,0.000000,,2013-02-25 10:11:00,
2013-02-25 02:41:00,15.0,6.0,-100.00,NNW,340,0.0,2.0,66,-99.99,,,0.00,0.000000,,2013-02-25 10:41:00,
2013-02-25 02:52:00,15.0,6.0,-100.00,NNW,340,0.0,2.0,66,-99.99,,,0.00,0.000000,,2013-02-25 10:52:00,
2013-02-25 03:01:00,15.0,6.0,-100.00,NNW,340,0.0,2.0,66,-99.99,,,0.00,0.000000,,2013-02-25 11:01:00,
2013-02-25 03:11:00,15.0,6.0,-100.00,NNW,340,0.0,2.0,66,-99.99,,,0.00,0.000000,,2013-02-25 11:11:00,
2013-02-25 03:42:00,16.0,8.0,-100.00,WNW,283,1.0,3.0,69,-99.99,,,0.00,0.000000,,2013-02-25 11:42:00,
2013-02-25 03:52:00,16.0,8.0,-100.00,WNW,283,1.0,3.0,69,-99.99,,,0.00,0.000000,,2013-02-25 11:52:00,
2013-02-25 04:01:00,16.0,8.0,-100.00,WNW,283,1.0,3.0,69,-99.99,,,0.00,0.000000,,2013-02-25 12:01:00,
2013-02-25 04:11:00,16.0,8.0,-100.00,WNW,283,1.0,3.0,69,-99.99,,,0.00,0.000000,,2013-02-25 12:11:00,
2013-02-25 04:42:00,14.0,6.0,-100.00,West,278,0.0,1.0,70,-99.99,,,0.00,0.000000,,2013-02-25 12:42:00,
2013-02-25 04:55:00,14.0,6.0,-100.00,West,278,0.0,1.0,70,-99.99,,,0.00,0.000000,,2013-02-25 12:55:00,
2013-02-25 05:02:00,14.0,6.0,-100.00,West,278,0.0,1.0,70,-99.99,,,0.00,0.000000,,2013-02-25 13:02:00,
2013-02-25 05:12:00,14.0,6.0,-100.00,West,278,0.0,1.0,70,-99.99,,,0.00,0.000000,,2013-02-25 13:12:00,
2013-02-25 05:42:00,18.0,8.0,-100.00,West,278,1.0,2.0,64,-99.99,,,0.00,0.000000,,2013-02-25 13:42:00,
2013-02-25 05:52:00,18.0,8.0,-100.00,West,278,1.0,2.0,64,-99.99,,,0.00,0.000000,,2013-02-25 13:52:00,
2013-02-25 06:02:00,18.0,8.0,-100.00,West,278,1.0,2.0,64,-99.99,,,0.00,0.000000,,2013-02-25 14:02:00,
2013-02-25 06:14:00,18.0,8.0,-100.00,West,278,1.0,2.0,64,-99.99,,,0.00,0.000000,,2013-02-25 14:14:00,
2013-02-25 06:42:00,19.0,7.0,-100.00,SSE,154,1.0,4.0,59,-99.99,,,0.00,0.120000,,2013-02-25 14:42:00,
2013-02-25 06:52:00,19.0,7.0,-100.00,SSE,154,1.0,4.0,59,-99.99,,,0.00,0.120000,,2013-02-25 14:52:00,
2013-02-25 07:02:00,19.0,7.0,-100.00,SSE,154,1.0,4.0,59,-99.99,,,0.00,0.120000,,2013-02-25 15:02:00,
2013-02-25 07:11:00,19.0,7.0,-100.00,SSE,154,1.0,4.0,59,-99.99,,,0.00,0.120000,,2013-02-25 15:11:00,
2013-02-25 07:41:00,23.0,9.0,-100.00,NNE,31,1.0,2.0,53,-99.99,,,0.00,43.470001,,2013-02-25 15:41:00,
2013-02-25 07:52:00,23.0,9.0,-100.00,NNE,31,1.0,2.0,53,-99.99,,,0.00,43.470001,,2013-02-25 15:52:00,
2013-02-25 08:01:00,23.0,9.0,-100.00,NNE,31,1.0,2.0,53,-99.99,,,0.00,43.470001,,2013-02-25 16:01:00,
2013-02-25 08:11:00,23.0,9.0,-100.00,NNE,31,1.0,2.0,53,-99.99,,,0.00,43.470001,,2013-02-25 16:11:00,
2013-02-25 08:42:00,26.0,10.0,-100.00,NW,313,2.0,3.0,50,-99.99,,,0.00,124.589996,,2013-02-25 16:42:00,
2013-02-25 08:52:00,26.0,10.0,-100.00,NW,313,2.0,3.0,50,-99.99,,,0.00,124.589996,,2013-02-25 16:52:00,
2013-02-25 09:01:00,26.0,10.0,-100.00,NW,313,2.0,3.0,50,-99.99,,,0.00,124.589996,,2013-02-25 17:01:00,
2013-02-25 09:11:00,26.0,10.0,-100.00,NW,313,2.0,3.0,50,-99.99,,,0.00,124.589996,,2013-02-25 17:11:00,
2013-02-25 09:41:00,37.0,12.0,-100.00,SSE,168,1.0,4.0,34,-99.99,,,-99.99,468.600006,,2013-02-25 17:41:00,
2013-02-25 09:52:00,37.0,12.0,-100.00,SSE,168,1.0,4.0,34,-99.99,,,-99.99,468.600006,,2013-02-25 17:52:00,
2013-02-25 10:01:00,37.0,12.0,-100.00,SSE,168,1.0,4.0,34,-99.99,,,-99.99,468.600006,,2013-02-25 18:01:00,
2013-02-25 10:12:00,37.0,12.0,-100.00,SSE,168,1.0,4.0,34,-99.99,,,-99.99,468.600006,,2013-02-25 18:12:00,
2013-02-25 10:41:00,41.0,10.0,-100.00,WNW,297,3.0,6.0,28,-99.99,,,0.00,614.340027,,2013-02-25 18:41:00,
2013-02-25 10:52:00,41.0,10.0,-100.00,WNW,297,3.0,6.0,28,-99.99,,,0.00,614.340027,,2013-02-25 18:52:00,
2013-02-25 11:01:00,41.0,10.0,-100.00,WNW,297,3.0,6.0,28,-99.99,,,0.00,614.340027,,2013-02-25 19:01:00,
2013-02-25 11:11:00,41.0,10.0,-100.00,WNW,297,3.0,6.0,28,-99.99,,,0.00,614.340027,,2013-02-25 19:11:00,
2013-02-25 11:41:00,47.0,11.0,-100.00,SE,145,2.0,5.0,22,-99.99,,,0.00,707.549988,,2013-02-25 19:41:00,
2013-02-25 11:52:00,47.0,11.0,-100.00,SE,145,2.0,5.0,22,-99.99,,,0.00,707.549988,,2013-02-25 19:52:00,
2013-02-25 12:01:00,47.0,11.0,-100.00,SE,145,2.0,5.0,22,-99.99,,,0.00,707.549988,,2013-02-25 20:01:00,
2013-02-25 12:11:00,47.0,11.0,-100.00,SE,145,2.0,5.0,22,-99.99,,,0.00,707.549988,,2013-02-25 20:11:00,
2013-02-25 12:41:00,50.0,11.0,-100.00,NW,325,3.0,8.0,20,-99.99,,,0.00,736.250000,,2013-02-25 20:41:00,
2013-02-25 12:52:00,50.0,11.0,-100.00,NW,325,3.0,8.0,20,-99.99,,,0.00,736.250000,,2013-02-25 20:52:00,
2013-02-25 13:01:00,50.0,11.0,-100.00,NW,325,3.0,8.0,20,-99.99,,,0.00,736.250000,,2013-02-25 21:01:00,
2013-02-25 13:11:00,50.0,11.0,-100.00,NW,325,3.0,8.0,20,-99.99,,,0.00,736.250000,,2013-02-25 21:11:00,
2013-02-25 13:42:00,52.0,13.0,-100.00,North,349,9.0,17.0,21,-99.99,,,0.00,697.320007,,2013-02-25 21:42:00,
2013-02-25 13:52:00,52.0,13.0,-100.00,North,349,9.0,17.0,21,-99.99,,,0.00,697.320007,,2013-02-25 21:52:00,
2013-02-25 14:01:00,52.0,13.0,-100.00,North,349,9.0,17.0,21,-99.99,,,0.00,697.320007,,2013-02-25 22:01:00,
2013-02-25 14:11:00,52.0,13.0,-100.00,North,349,9.0,17.0,21,-99.99,,,0.00,697.320007,,2013-02-25 22:11:00,
2013-02-25 14:42:00,54.0,11.0,-100.00,NW,324,15.0,27.0,18,-99.99,,,0.00,596.789978,,2013-02-25 22:42:00,
2013-02-25 14:52:00,54.0,11.0,-100.00,NW,324,15.0,27.0,18,-99.99,,,0.00,596.789978,,2013-02-25 22:52:00,
2013-02-25 15:01:00,54.0,11.0,-100.00,NW,324,15.0,27.0,18,-99.99,,,0.00,596.789978,,2013-02-25 23:01:00,
2013-02-25 15:11:00,54.0,11.0,-100.00,NW,324,15.0,27.0,18,-99.99,,,0.00,596.789978,,2013-02-25 23:11:00,
2013-02-25 16:11:00,52.0,12.0,-100.00,NNW,334,15.0,27.0,19,-99.99,,,0.00,459.299988,,2013-02-26 00:11:00,
2013-02-25 16:41:00,50.0,12.0,-100.00,NNW,346,14.0,23.0,21,-99.99,,,0.00,279.970001,,2013-02-26 00:41:00,
2013-02-25 16:52:00,50.0,12.0,-100.00,NNW,346,14.0,23.0,21,-99.99,,,0.00,279.970001,,2013-02-26 00:52:00,
2013-02-25 17:01:00,50.0,12.0,-100.00,NNW,346,14.0,23.0,21,-99.99,,,0.00,279.970001,,2013-02-26 01:01:00,
2013-02-25 17:11:00,50.0,12.0,-100.00,NNW,346,14.0,23.0,21,-99.99,,,0.00,279.970001,,2013-02-26 01:11:00,
2013-02-25 17:41:00,48.0,4.0,-100.00,NNW,342,11.0,20.0,16,-99.99,,,0.00,90.769997,,2013-02-26 01:41:00,
2013-02-25 17:52:00,48.0,4.0,-100.00,NNW,342,11.0,20.0,16,-99.99,,,0.00,90.769997,,2013-02-26 01:52:00,
2013-02-25 18:01:00,48.0,4.0,-100.00,NNW,342,11.0,20.0,16,-99.99,,,0.00,90.769997,,2013-02-26 02:01:00,
2013-02-25 18:11:00,48.0,4.0,-100.00,NNW,342,11.0,20.0,16,-99.99,,,0.00,90.769997,,2013-02-26 02:11:00,
2013-02-25 18:41:00,42.0,5.0,-100.00,North,8,6.0,13.0,21,-99.99,,,0.00,0.230000,,2013-02-26 02:41:00,
2013-02-25 18:52:00,42.0,5.0,-100.00,North,8,6.0,13.0,21,-99.99,,,0.00,0.230000,,2013-02-26 02:52:00,
2013-02-25 19:01:00,42.0,5.0,-100.00,North,8,6.0,13.0,21,-99.99,,,0.00,0.230000,,2013-02-26 03:01:00,
2013-02-25 19:11:00,42.0,5.0,-100.00,North,8,6.0,13.0,21,-99.99,,,0.00,0.230000,,2013-02-26 03:11:00,
2013-02-25 19:41:00,40.0,4.0,-100.00,North,357,7.0,11.0,22,-99.99,,,0.00,0.120000,,2013-02-26 03:41:00,
2013-02-25 19:52:00,40.0,4.0,-100.00,North,357,7.0,11.0,22,-99.99,,,0.00,0.120000,,2013-02-26 03:52:00,
2013-02-25 20:01:00,40.0,4.0,-100.00,North,357,7.0,11.0,22,-99.99,,,0.00,0.120000,,2013-02-26 04:01:00,
2013-02-25 20:11:00,40.0,4.0,-100.00,North,357,7.0,11.0,22,-99.99,,,0.00,0.120000,,2013-02-26 04:11:00,
2013-02-25 20:42:00,33.0,5.0,-100.00,ENE,63,3.0,4.0,30,-99.99,,,0.00,0.000000,,2013-02-26 04:42:00,
2013-02-25 20:52:00,33.0,5.0,-100.00,ENE,63,3.0,4.0,30,-99.99,,,0.00,0.000000,,2013-02-26 04:52:00,
2013-02-25 21:01:00,33.0,5.0,-100.00,ENE,63,3.0,4.0,30,-99.99,,,0.00,0.000000,,2013-02-26 05:01:00,
2013-02-25 21:11:00,33.0,5.0,-100.00,ENE,63,3.0,4.0,30,-99.99,,,0.00,0.000000,,2013-02-26 05:11:00,
2013-02-25 21:42:00,29.0,6.0,-100.00,WSW,239,4.0,5.0,37,-99.99,,,0.00,0.000000,,2013-02-26 05:42:00,
2013-02-25 21:52:00,29.0,6.0,-100.00,WSW,239,4.0,5.0,37,-99.99,,,0.00,0.000000,,2013-02-26 05:52:00,
2013-02-25 22:01:00,29.0,6.0,-100.00,WSW,239,4.0,5.0,37,-99.99,,,0.00,0.000000,,2013-02-26 06:01:00,
2013-02-25 22:11:00,29.0,6.0,-100.00,WSW,239,4.0,5.0,37,-99.99,,,0.00,0.000000,,2013-02-26 06:11:00,
2013-02-25 22:31:00,28.0,5.0,-100.00,North,356,2.0,3.0,35,-99.99,,,0.00,0.000000,,2013-02-26 06:31:00,
2013-02-25 22:41:00,28.0,5.0,-100.00,North,356,2.0,3.0,35,-99.99,,,0.00,0.000000,,2013-02-26 06:41:00,
2013-02-25 22:52:00,28.0,5.0,-100.00,North,356,2.0,3.0,35,-99.99,,,0.00,0.000000,,2013-02-26 06:52:00,
2013-02-25 23:01:00,28.0,5.0,-100.00,North,356,2.0,3.0,35,-99.99,,,0.00,0.000000,,2013-02-26 07:01:00,
2013-02-25 23:11:00,28.0,5.0,-100.00,North,356,2.0,3.0,35,-99.99,,,0.00,0.000000,,2013-02-26 07:11:00,
2013-02-25 23:41:00,25.0,6.0,-100.00,NW,307,3.0,4.0,42,-99.99,,,0.00,0.000000,,2013-02-26 07:41:00,
2013-02-25 23:52:00,25.0,6.0,-100.00,NW,307,3.0,4.0,42,-99.99,,,0.00,0.000000,,2013-02-26 07:52:00,